Flight Track Log - Related Links

Times and Time Zones

All times are in EDT time to prevent confusion due to time zone crossing. See the AFR442 flight status page for this flight to view local times or setup timezone preferences in your user account.

Time Position Orientation Groundspeed Altitude Reporting Facility
EDT Latitude Longitude Course Direction KTS MPH feet Rate Location/Type
Sat 05:42:00 PM 48.6338 2.0391 222° Southwest  Level Estimated
Sat 05:43:00 PM 48.5387 1.9125 221° Southwest  Level Estimated
Sat 05:44:00 PM 48.4435 1.7865 221° Southwest  Level Estimated
Sat 05:45:00 PM 48.3481 1.6609 221° Southwest  Level Estimated
Sat 05:46:00 PM 48.2490 1.5310 221° Southwest  Level Estimated
Sat 05:47:00 PM 48.1497 1.4016 221° Southwest  Level Estimated
Sat 05:48:00 PM 48.0502 1.2728 221° Southwest  Level Estimated
Sat 05:49:00 PM 47.9506 1.1444 221° Southwest  Level Estimated
Sat 05:50:00 PM 47.8509 1.0165 221° Southwest  Level Estimated
Sat 05:50:40 PM 48.9961 2.5604 221° Southwest 177 204 300  Level FlightAware ADS-B
Sat 05:50:44 PM 48.9959 2.5555 266° West 172 198 500 2,000 Climbing FlightAware ADS-B
Sat 05:50:52 PM 48.9954 2.5467 265° West 174 200 700 1,714 Climbing FlightAware ADS-B
Sat 05:50:58 PM 48.9949 2.5386 265° West 177 204 900 1,579 Climbing FlightAware ADS-B
Sat 05:51:11 PM 48.9938 2.5225 264° West 181 208 1,200 1,714 Climbing FlightAware ADS-B
Sat 05:51:26 PM 48.9924 2.5042 263° West 180 207 1,700 1,862 Climbing FlightAware ADS-B
Sat 05:51:40 PM 48.9908 2.4861 262° West 181 208 2,100 1,826 Climbing FlightAware ADS-B
Sat 05:51:49 PM 48.9901 2.4751 264° West 180 207 2,400 2,000 Climbing FlightAware ADS-B
Sat 05:52:04 PM 48.9895 2.4557 267° West 176 203 2,900 1,846 Climbing FlightAware ADS-B
Sat 05:52:15 PM 48.9891 2.4422 267° West 174 200 3,200 1,500 Climbing FlightAware ADS-B
Sat 05:52:32 PM 48.9885 2.4218 267° West 177 204 3,600 1,111 Climbing FlightAware ADS-B
Sat 05:52:42 PM 48.9879 2.4093 266° West 187 215 3,700 600 Climbing FlightAware ADS-B
Sat 05:52:52 PM 48.9873 2.3948 266° West 196 226 3,800 783 Climbing FlightAware ADS-B
Sat 05:53:05 PM 48.9862 2.3769 265° West 210 242 4,000 900 Climbing FlightAware ADS-B
Sat 05:53:12 PM 48.9855 2.3660 264° West 218 251 4,100 545 Climbing FlightAware ADS-B
Sat 05:53:27 PM 48.9841 2.3423 265° West 233 268 4,200 1,000 Climbing FlightAware ADS-B
Sat 05:53:42 PM 48.9826 2.3173 265° West 240 276 4,600 1,600 Climbing FlightAware ADS-B
Sat 05:53:57 PM 48.9812 2.2920 265° West 248 285 5,000 1,655 Climbing FlightAware ADS-B
Sat 05:54:11 PM 48.9797 2.2666 265° West 260 299 5,400 1,385 Climbing FlightAware ADS-B
Sat 05:54:23 PM 48.9784 2.2438 265° West 270 311 5,600 1,500 Climbing FlightAware ADS-B
Sat 05:54:35 PM 48.9771 2.2211 265° West 274 315 6,000 2,444 Climbing FlightAware ADS-B
Sat 05:54:50 PM 48.9755 2.1926 265° West 275 316 6,700 2,516 Climbing FlightAware ADS-B
Sat 05:55:06 PM 48.9736 2.1611 265° West 281 323 7,300 2,063 Climbing FlightAware ADS-B
Sat 05:55:22 PM 48.9717 2.1290 265° West 291 335 7,800 2,250 Climbing FlightAware ADS-B
Sat 05:55:38 PM 48.9700 2.0979 265° West 290 334 8,500 2,710 Climbing FlightAware ADS-B
Sat 05:55:53 PM 48.9684 2.0670 266° West 288 331 9,200 2,600 Climbing FlightAware ADS-B
Sat 05:56:08 PM 48.9668 2.0361 266° West 293 337 9,800 2,333 Climbing FlightAware ADS-B
Sat 05:57:05 PM 48.9597 1.9157 265° West 304 350 12,000 973 Climbing FlightAware ADS-B
Sat 05:57:22 PM 48.9569 1.8812 265° West 332 382 11,000 1,886 Descending FlightAware UK
Sat 05:57:40 PM 48.9539 1.8390 265° West 317 365 13,100 6,000 Climbing FlightAware ADS-B
Sat 05:57:45 PM 48.9522 1.8276 257° West 319 367 13,300 2,308 Climbing FlightAware ADS-B
Sat 05:57:53 PM 48.9487 1.8106 253° West 322 371 13,600 -1,200 Climbing FlightAware ADS-B
Sat 05:58:10 PM 48.9409 1.7752 253° West 340 391 12,800 2,400 Descending FlightAware UK
Sat 05:58:28 PM 48.9295 1.7379 253° West 322 371 15,000 2,333 Climbing FlightAware ADS-B
Sat 05:58:46 PM 48.9184 1.6995 253° West 350 403 14,200 2,400 Descending FlightAware UK
Sat 05:58:58 PM 48.9120 1.6724 253° West 332 382 16,200 2,000 Climbing FlightAware ADS-B
Sat 05:59:16 PM 48.9016 1.6345 253° West 354 407 15,200 1,548 Descending FlightAware UK
Sat 05:59:29 PM 48.8937 1.6062 253° West 348 400 17,000 1,000 Climbing FlightAware ADS-B
Sat 05:59:46 PM 48.8824 1.5674 253° West 368 423 15,700 968 Descending FlightAware UK
Sat 06:00:00 PM 48.8731 1.5338 253° West 369 425 17,500 1,200 Climbing FlightAware ADS-B
Sat 06:00:16 PM 48.8620 1.4950 253° West 390 449 16,300 1,125 Descending FlightAware UK
Sat 06:00:32 PM 48.8513 1.4557 253° West 391 450 18,100 833 Climbing FlightAware ADS-B
Sat 06:00:52 PM 48.8363 1.4038 253° West 414 476 16,800 706 Descending FlightAware UK
Sat 06:01:06 PM 48.8257 1.3653 253° West 418 481 18,500 800 Climbing FlightAware ADS-B
Sat 06:01:22 PM 48.8126 1.3223 253° West 432 497 17,200 -1,765 Descending FlightAware UK
Sat 06:01:40 PM 48.7986 1.2723 247° West 438 504 17,500 1,333 Climbing FlightAware UK
Sat 06:01:58 PM 48.7842 1.2219 247° West 444 511 18,000 3,938 Climbing FlightAware UK
Sat 06:02:12 PM 48.7790 1.2010 247° West 449 517 19,600 3,923 Climbing FlightAware ADS-B
Sat 06:02:24 PM 48.7624 1.1449 246° West 464 534 19,700 -2,357 Climbing FlightAware ADS-B
Sat 06:02:40 PM 48.7489 1.0986 246° West 468 539 18,500 -706 Descending FlightAware UK
Sat 06:02:58 PM 48.7327 1.0430 246° West 468 539 19,300 5,226 Climbing FlightAware UK
Sat 06:03:11 PM 48.7210 1.0026 246° West 474 545 21,200 1,600 Climbing FlightAware ADS-B
Sat 06:03:28 PM 48.7060 0.9526 246° West 476 548 20,100 1,688 Descending FlightAware UK
Sat 06:03:43 PM 48.6937 0.9069 246° West 480 552 22,100 2,000 Climbing FlightAware ADS-B
Sat 06:03:58 PM 48.6799 0.8606 246° West 484 557 21,100 -909 Descending FlightAware UK
Sat 06:04:16 PM 48.6640 0.8045 247° West 486 559 21,600 5,684 Climbing FlightAware UK
Sat 06:04:17 PM 48.6700 0.8240 247° West 484 557 22,900 1,333 Climbing FlightAware ADS-B
Sat 06:04:34 PM 48.6469 0.7491 247° West 486 559 22,000 -706 Descending FlightAware UK
Sat 06:04:51 PM 48.6254 0.6967 238° Southwest 488 562 22,500 4,957 Climbing FlightAware UK
Sat 06:04:57 PM 48.6320 0.7130 238° Southwest 493 567 23,900 1,250 Climbing FlightAware ADS-B
Sat 06:05:15 PM 48.5937 0.6262 238° Southwest 490 564 23,000 -811 Descending FlightAware UK
Sat 06:05:34 PM 48.5685 0.5729 235° Southwest 496 571 23,400 5,455 Climbing FlightAware UK
Sat 06:05:37 PM 48.5690 0.5720 235° Southwest 513 590 25,000 1,565 Climbing FlightAware ADS-B
Sat 06:05:57 PM 48.5360 0.5029 235° Southwest 502 578 24,000 -923 Descending FlightAware UK
Sat 06:06:16 PM 48.5111 0.4494 235° Southwest 502 578 24,400 4,800 Climbing FlightAware UK
Sat 06:06:22 PM 48.5070 0.4390 235° Southwest 524 603 26,000 1,000 Climbing FlightAware ADS-B
Sat 06:06:40 PM 48.4775 0.3775 235° Southwest 506 582 24,800 -1,371 Descending FlightAware UK
Sat 06:06:57 PM 48.4523 0.3240 235° Southwest 508 585 25,200 5,455 Climbing FlightAware UK
Sat 06:07:02 PM 48.4500 0.3190 235° Southwest 535 616 26,800 1,500 Climbing FlightAware ADS-B
Sat 06:07:21 PM 48.4178 0.2507 235° Southwest 506 582 25,800 -649 Descending FlightAware UK
Sat 06:07:39 PM 48.3917 0.1968 234° Southwest 504 580 26,400 5,077 Climbing FlightAware UK
Sat 06:07:47 PM 48.3830 0.1820 234° Southwest 537 618 28,000 6,706 Climbing FlightAware ADS-B
Sat 06:07:56 PM 48.3662 0.1485 233° Southwest 538 619 28,300 -1,714 Climbing FlightAware ADS-B
Sat 06:08:15 PM 48.3358 0.0905 233° Southwest 504 580 27,200 1,355 Descending FlightAware UK
Sat 06:08:27 PM 48.3210 0.0620 233° Southwest 538 619 29,000 1,600 Climbing FlightAware ADS-B
Sat 06:08:45 PM 48.2896 0.0033 233° Southwest 502 578 28,000 1,467 Descending FlightAware UK
Sat 06:09:12 PM 48.2510 -0.0690 233° Southwest 537 618 30,100 2,597 Climbing FlightAware ADS-B
Sat 06:09:52 PM 48.1890 -0.1820 231° Southwest 538 619 30,900 1,125 Climbing FlightAware ADS-B
Sat 06:10:32 PM 48.1260 -0.2970 231° Southwest 540 621 31,600 1,114 Climbing FlightAware ADS-B
Sat 06:11:02 PM 48.0770 -0.3860 231° Southwest 539 620 32,200 1,120 Climbing FlightAware ADS-B
Sat 06:11:47 PM 48.0040 -0.5170 230° Southwest 536 617 33,000 565 Climbing FlightAware ADS-B
Sat 06:12:27 PM 47.9420 -0.6280 230° Southwest 536 617 33,000  Level FlightAware ADS-B
Sat 06:13:12 PM 47.8720 -0.7540 230° Southwest 534 615 33,000  Level FlightAware ADS-B
Sat 06:13:52 PM 47.8110 -0.8630 230° Southwest 533 613 33,000  Level FlightAware ADS-B
Sat 06:14:22 PM 47.7620 -0.9500 230° Southwest 532 612 33,000  Level FlightAware ADS-B
Sat 06:15:02 PM 47.6990 -1.0620 230° Southwest 532 612 33,000  Level FlightAware ADS-B
Sat 06:15:42 PM 47.6360 -1.1740 230° Southwest 532 612 33,000  Level FlightAware ADS-B
Sat 06:16:22 PM 47.5720 -1.2860 230° Southwest 532 612 33,000  Level FlightAware ADS-B
Sat 06:17:07 PM 47.5000 -1.4130 230° Southwest 532 612 33,000  Level FlightAware ADS-B
Sat 06:17:47 PM 47.4360 -1.5240 230° Southwest 531 611 33,000  Level FlightAware ADS-B
Sat 06:18:32 PM 47.3660 -1.6460 230° Southwest 531 611 33,000  Level FlightAware ADS-B
Sat 06:19:12 PM 47.3010 -1.7590 230° Southwest 530 610 33,000  Level FlightAware ADS-B
Sat 06:19:57 PM 47.2300 -1.8810 229° Southwest 529 609 33,000  Level FlightAware ADS-B
Sat 06:20:37 PM 47.1670 -1.9890 229° Southwest 528 608 33,000  Level FlightAware ADS-B
Sat 06:21:22 PM 47.0960 -2.1100 229° Southwest 528 608 33,000  Level FlightAware ADS-B
Sat 06:22:02 PM 47.0330 -2.2180 229° Southwest 528 608 33,000  Level FlightAware ADS-B
Sat 06:22:42 PM 46.9680 -2.3270 229° Southwest 528 608 33,000  Level FlightAware ADS-B
Sat 06:23:27 PM 46.8960 -2.4480 229° Southwest 527 606 33,000  Level FlightAware ADS-B
Sat 06:24:07 PM 46.8310 -2.5580 229° Southwest 525 604 33,000  Level FlightAware ADS-B
Sat 06:24:52 PM 46.7610 -2.6760 229° Southwest 525 604 33,000  Level FlightAware ADS-B
Sat 06:25:32 PM 46.6990 -2.7780 228° Southwest 524 603 33,000  Level FlightAware ADS-B
Sat 06:26:17 PM 46.6260 -2.9000 229° Southwest 522 601 33,000  Level FlightAware ADS-B
Sat 06:26:57 PM 46.5610 -3.0060 228° Southwest 522 601 33,000  Level FlightAware ADS-B
Sat 06:27:32 PM 46.5120 -3.0880 229° Southwest 520 598 33,000  Level FlightAware ADS-B
Sat 06:28:12 PM 46.4480 -3.1920 228° Southwest 520 598 33,000  Level FlightAware ADS-B
Sat 06:29:02 PM 46.3700 -3.3200 229° Southwest 519 597 33,000  Level FlightAware ADS-B
Sat 06:29:47 PM 46.2940 -3.4430 228° Southwest 519 597 33,000  Level FlightAware ADS-B
Sat 06:30:17 PM 46.2440 -3.5240 228° Southwest 518 596 33,000  Level FlightAware ADS-B
Sat 06:31:02 PM 46.1800 -3.6260 228° Southwest 518 596 33,000  Level FlightAware ADS-B
Sat 06:31:32 PM 46.2440 -3.5240 48° Northeast 33,000  Level FlightAware ADS-B
Sat 06:31:52 PM 46.0980 -3.7600 228° Southwest 517 595 33,000  Level FlightAware ADS-B
Sat 06:32:32 PM 46.0290 -3.8700 228° Southwest 517 595 33,000  Level FlightAware ADS-B
Sat 06:33:07 PM 45.9750 -3.9560 228° Southwest 516 594 33,000  Level FlightAware ADS-B
Sat 06:33:57 PM 45.8960 -4.0820 228° Southwest 517 595 33,000  Level FlightAware ADS-B
Sat 06:34:47 PM 45.8180 -4.2040 227° Southwest 517 595 33,000  Level FlightAware ADS-B
Sat 06:35:37 PM 45.7490 -4.3100 227° Southwest 517 595 33,000  Level FlightAware ADS-B
Sat 06:36:17 PM 45.6930 -4.3950 227° Southwest 517 595 33,000  Level FlightAware ADS-B
Sat 06:36:57 PM 45.6380 -4.4800 227° Southwest 517 595 33,000  Level FlightAware ADS-B
Sat 06:37:37 PM 45.5820 -4.5650 227° Southwest 517 595 33,000  Level FlightAware ADS-B
Sat 06:38:17 PM 45.5270 -4.6500 227° Southwest 517 595 33,000  Level FlightAware ADS-B
Sat 06:39:07 PM 45.4570 -4.7560 227° Southwest 517 595 33,000  Level FlightAware ADS-B
Sat 06:39:47 PM 45.4020 -4.8410 227° Southwest 517 595 33,000  Level FlightAware ADS-B
Sat 06:40:27 PM 45.3460 -4.9260 227° Southwest 517 595 33,000  Level FlightAware ADS-B
Sat 06:41:07 PM 45.2910 -5.0100 227° Southwest 517 595 33,000  Level FlightAware ADS-B
Sat 06:41:47 PM 45.2350 -5.0950 227° Southwest 517 595 33,000  Level FlightAware ADS-B
Sat 06:42:37 PM 45.1660 -5.2000 227° Southwest 517 595 33,000  Level FlightAware ADS-B
Sat 06:43:17 PM 45.1110 -5.2850 227° Southwest 517 595 33,000  Level FlightAware ADS-B
Sat 06:43:57 PM 45.0550 -5.3690 227° Southwest 517 595 33,000  Level FlightAware ADS-B
Sat 06:44:57 PM 44.8460 -5.6980 228° Southwest 498 573 33,000  Level FlightAware ADS-B
Sat 06:45:47 PM 44.7700 -5.8110 227° Southwest 497 572 33,000  Level FlightAware ADS-B
Sat 06:46:22 PM 44.7130 -5.8960 227° Southwest 497 572 33,000  Level FlightAware ADS-B
Sat 06:49:00 PM 44.4312 -6.1746 215° Southwest  Level Estimated
Sat 06:49:07 PM 44.4540 -6.2770 215° Southwest 488 562 33,000  Level FlightAware ADS-B
Sat 06:51:00 PM 44.2518 -6.4743 215° Southwest  Level Estimated
Sat 06:51:12 PM 44.2590 -6.5600 215° Southwest 488 562 33,000  Level FlightAware ADS-B
Sat 06:51:47 PM 44.1990 -6.6480 226° Southwest 487 560 33,000  Level FlightAware ADS-B
Sat 06:52:37 PM 44.1210 -6.7600 226° Southwest 486 559 33,000  Level FlightAware ADS-B
Sat 06:53:17 PM 44.0600 -6.8470 226° Southwest 485 558 33,000  Level FlightAware ADS-B
Sat 06:54:02 PM 43.9870 -6.9520 226° Southwest 485 558 33,000  Level FlightAware ADS-B
Sat 06:54:42 PM 43.9250 -7.0400 226° Southwest 485 558 33,000  Level FlightAware ADS-B
Sat 06:55:27 PM 43.8540 -7.1410 226° Southwest 484 557 33,000  Level FlightAware ADS-B
Sat 06:55:57 PM 43.8110 -7.2020 226° Southwest 483 556 33,000  Level FlightAware ADS-B
Sat 06:58:00 PM 43.5891 -7.4107 214° Southwest  Level Estimated
Sat 06:59:00 PM 43.4807 -7.5119 214° Southwest  Level Estimated
Sat 07:00:00 PM 43.3722 -7.6128 214° Southwest  Level Estimated
Sat 07:00:32 PM 43.3960 -7.7830 214° Southwest 484 557 33,000  Level FlightAware ADS-B
Sat 07:01:17 PM 43.3100 -7.9010 225° Southwest 485 558 33,000  Level FlightAware ADS-B
Sat 07:01:57 PM 43.2460 -7.9900 225° Southwest 485 558 33,000  Level FlightAware ADS-B
Sat 07:02:37 PM 43.1840 -8.0750 225° Southwest 485 558 33,000  Level FlightAware ADS-B
Sat 07:03:22 PM 43.1130 -8.1730 225° Southwest 485 558 33,000  Level FlightAware ADS-B
Sat 07:04:02 PM 43.0490 -8.2600 225° Southwest 486 559 33,000  Level FlightAware ADS-B
Sat 07:04:47 PM 42.9750 -8.3600 225° Southwest 485 558 33,000  Level FlightAware ADS-B
Sat 07:05:27 PM 42.9140 -8.4360 222° Southwest 487 560 33,000  Level FlightAware ADS-B
Sat 07:05:57 PM 42.8530 -8.4980 217° Southwest 488 562 33,000  Level FlightAware ADS-B
Sat 07:06:37 PM 42.7800 -8.5660 214° Southwest 487 560 33,000  Level FlightAware ADS-B
Sat 07:07:17 PM 42.7070 -8.6340 214° Southwest 487 560 33,000  Level FlightAware ADS-B
Sat 07:07:57 PM 42.6310 -8.7060 215° Southwest 485 558 33,000  Level FlightAware ADS-B
Sat 07:08:42 PM 42.5600 -8.7730 215° Southwest 485 558 33,000  Level FlightAware ADS-B
Sat 07:09:17 PM 42.4880 -8.8400 214° Southwest 484 557 33,000  Level FlightAware ADS-B
Sat 07:10:07 PM 42.4000 -8.9230 215° Southwest 483 556 33,000  Level FlightAware ADS-B
Sat 07:10:42 PM 42.3380 -8.9810 215° Southwest 482 555 33,000  Level FlightAware ADS-B
Sat 07:11:27 PM 42.2570 -9.0570 215° Southwest 481 554 33,000  Level FlightAware ADS-B
Sat 07:12:12 PM 42.1740 -9.1360 215° Southwest 480 552 33,000  Level FlightAware ADS-B
Sat 07:12:52 PM 42.1010 -9.2060 215° Southwest 481 554 33,000  Level FlightAware ADS-B
Sat 07:13:32 PM 42.0320 -9.2710 215° Southwest 480 552 33,000  Level FlightAware ADS-B
Sat 07:14:47 PM 41.8860 -9.4070 215° Southwest 473 544 33,000  Level FlightAware ADS-B
Sat 07:15:22 PM 41.8180 -9.4700 215° Southwest 473 544 33,000  Level FlightAware ADS-B
Sat 07:16:07 PM 41.7340 -9.5490 215° Southwest 473 544 33,000  Level FlightAware ADS-B
Sat 07:16:47 PM 41.6690 -9.6090 215° Southwest 473 544 33,000  Level FlightAware ADS-B
Sat 07:17:37 PM 41.5760 -9.6950 215° Southwest 473 544 33,000  Level FlightAware ADS-B
Sat 07:18:17 PM 41.5150 -9.7520 215° Southwest 473 544 33,000  Level FlightAware ADS-B
Sat 07:18:57 PM 41.4540 -9.8090 215° Southwest 473 544 33,000  Level FlightAware ADS-B
Sat 07:19:37 PM 41.3930 -9.8660 215° Southwest 473 544 33,000  Level FlightAware ADS-B
Sat 07:22:00 PM 41.1293 -10.0878 212° Southwest  Level Estimated
Sat 07:22:27 PM 41.0540 -10.1710 212° Southwest 33,000  Level FlightAware ADS-B
Sat 07:23:12 PM 40.9610 -10.2560 215° Southwest 487 560 33,000  Level FlightAware ADS-B
Sat 07:23:47 PM 40.8980 -10.3110 213° Southwest 489 563 33,000  Level FlightAware ADS-B
Sat 07:24:52 PM 40.7780 -10.4200 215° Southwest 490 564 33,000  Level FlightAware ADS-B
Sat 07:25:27 PM 40.7150 -10.4750 213° Southwest 490 564 33,000  Level FlightAware ADS-B
Sat 07:26:07 PM 40.6520 -10.5320 214° Southwest 490 564 33,000  Level FlightAware ADS-B
Sat 07:26:57 PM 40.5720 -10.6030 214° Southwest 490 564 33,000  Level FlightAware ADS-B
Sat 07:27:37 PM 40.5080 -10.6600 214° Southwest 490 564 33,000  Level FlightAware ADS-B
Sat 07:28:17 PM 40.4440 -10.7160 214° Southwest 490 564 33,000  Level FlightAware ADS-B
Sat 07:28:57 PM 40.3800 -10.7730 214° Southwest 490 564 33,000  Level FlightAware ADS-B
Sat 07:29:37 PM 40.3160 -10.8290 214° Southwest 490 564 33,000  Level FlightAware ADS-B
Sat 07:30:27 PM 40.2360 -10.9000 214° Southwest 490 564 33,000  Level FlightAware ADS-B
Sat 07:31:07 PM 40.1720 -10.9570 214° Southwest 490 564 33,000  Level FlightAware ADS-B
Sat 07:31:47 PM 40.1080 -11.0130 214° Southwest 490 564 33,000  Level FlightAware ADS-B
Sat 07:32:27 PM 40.0440 -11.0690 214° Southwest 490 564 33,000  Level FlightAware ADS-B
Sat 07:33:07 PM 39.9810 -11.1250 214° Southwest 490 564 33,000  Level FlightAware ADS-B
Sat 07:33:57 PM 39.9010 -11.1960 214° Southwest 490 564 33,000  Level FlightAware ADS-B
Sat 07:34:37 PM 39.8370 -11.2520 214° Southwest 490 564 33,000  Level FlightAware ADS-B
Sat 07:37:00 PM 39.5707 -11.4632 211° Southwest  Level Estimated
Sat 07:38:00 PM 39.4588 -11.5513 211° Southwest  Level Estimated
Sat 07:39:00 PM 39.3469 -11.6391 211° Southwest  Level Estimated
Sat 07:40:00 PM 39.2349 -11.7267 211° Southwest  Level Estimated
Sat 07:41:00 PM 39.1228 -11.8139 211° Southwest  Level Estimated
Sat 07:42:00 PM 39.0107 -11.9009 211° Southwest  Level Estimated
Sat 07:43:00 PM 38.8985 -11.9876 211° Southwest  Level Estimated
Sat 07:44:00 PM 38.7863 -12.0741 211° Southwest  Level Estimated
Sat 07:45:00 PM 38.6740 -12.1603 211° Southwest  Level Estimated
Sat 07:46:00 PM 38.5616 -12.2462 211° Southwest  Level Estimated
Sat 07:47:00 PM 38.4491 -12.3318 211° Southwest  Level Estimated
Sat 07:48:00 PM 38.3366 -12.4172 211° Southwest  Level Estimated
Sat 07:49:00 PM 38.2241 -12.5023 211° Southwest  Level Estimated
Sat 07:50:00 PM 38.1114 -12.5871 211° Southwest  Level Estimated
Sat 07:51:00 PM 37.9987 -12.6717 211° Southwest  Level Estimated
Sat 07:52:00 PM 37.8860 -12.7561 211° Southwest  Level Estimated
Sat 07:53:00 PM 37.7732 -12.8401 211° Southwest  Level Estimated
Sat 07:54:00 PM 37.6603 -12.9239 210° Southwest  Level Estimated
Sat 07:55:00 PM 37.5474 -13.0075 210° Southwest  Level Estimated
Sat 07:56:00 PM 37.4344 -13.0908 210° Southwest  Level Estimated
Sat 07:57:00 PM 37.3214 -13.1738 210° Southwest  Level Estimated
Sat 07:58:00 PM 37.2082 -13.2566 210° Southwest  Level Estimated
Sat 07:59:00 PM 37.0951 -13.3392 210° Southwest  Level Estimated
Sat 08:00:00 PM 36.9819 -13.4215 210° Southwest  Level Estimated
Sat 08:01:00 PM 36.8686 -13.5035 210° Southwest  Level Estimated
Sat 08:02:00 PM 36.7553 -13.5854 210° Southwest  Level Estimated
Sat 08:03:00 PM 36.6419 -13.6669 210° Southwest  Level Estimated
Sat 08:04:00 PM 36.5285 -13.7483 210° Southwest  Level Estimated
Sat 08:05:00 PM 36.4150 -13.8294 210° Southwest  Level Estimated
Sat 08:06:00 PM 36.3014 -13.9102 210° Southwest  Level Estimated
Sat 08:07:00 PM 36.1878 -13.9909 210° Southwest  Level Estimated
Sat 08:08:00 PM 36.0741 -14.0713 210° Southwest  Level Estimated
Sat 08:09:00 PM 35.9604 -14.1514 210° Southwest  Level Estimated
Sat 08:10:00 PM 35.8467 -14.2313 210° Southwest  Level Estimated
Sat 08:11:00 PM 35.7328 -14.3111 210° Southwest  Level Estimated
Sat 08:12:00 PM 35.6190 -14.3905 210° Southwest  Level Estimated
Sat 08:13:00 PM 35.5051 -14.4698 210° Southwest  Level Estimated
Sat 08:14:00 PM 35.3911 -14.5488 209° Southwest  Level Estimated
Sat 08:15:00 PM 35.2771 -14.6276 209° Southwest  Level Estimated
Sat 08:16:00 PM 35.1630 -14.7062 209° Southwest  Level Estimated
Sat 08:17:00 PM 35.0488 -14.7845 209° Southwest  Level Estimated
Sat 08:18:00 PM 34.9347 -14.8627 209° Southwest  Level Estimated
Sat 08:19:00 PM 34.8204 -14.9406 209° Southwest  Level Estimated
Sat 08:20:00 PM 34.7062 -15.0183 209° Southwest  Level Estimated
Sat 08:21:00 PM 34.5918 -15.0958 209° Southwest  Level Estimated
Sat 08:22:00 PM 34.4775 -15.1731 209° Southwest  Level Estimated
Sat 08:23:00 PM 34.3630 -15.2501 209° Southwest  Level Estimated
Sat 08:23:37 PM 34.0780 -15.7850 209° Southwest 490 564 33,000  Level FlightAware ADS-B
Sat 08:24:00 PM 34.2486 -15.3270 209° Southwest  Level Estimated
Sat 08:24:22 PM 33.9910 -15.8470 211° Southwest 491 565 33,000  Level FlightAware ADS-B
Sat 08:25:02 PM 33.9150 -15.9020 211° Southwest 490 564 33,000  Level FlightAware ADS-B
Sat 08:25:42 PM 33.8370 -15.9580 211° Southwest 490 564 33,000  Level FlightAware ADS-B
Sat 08:26:27 PM 33.7470 -16.0230 211° Southwest 492 566 33,000  Level FlightAware ADS-B
Sat 08:27:07 PM 33.6670 -16.0790 210° Southwest 493 567 33,000  Level FlightAware ADS-B
Sat 08:27:47 PM 33.5900 -16.1340 211° Southwest 495 570 33,000  Level FlightAware ADS-B
Sat 08:28:32 PM 33.5030 -16.1960 211° Southwest 497 572 33,000  Level FlightAware ADS-B
Sat 08:29:12 PM 33.4230 -16.2530 211° Southwest 499 574 33,000  Level FlightAware ADS-B
Sat 08:29:57 PM 33.3300 -16.3180 210° Southwest 499 574 33,000  Level FlightAware ADS-B
Sat 08:30:37 PM 33.2520 -16.3730 211° Southwest 499 574 33,000  Level FlightAware ADS-B
Sat 08:31:17 PM 33.1710 -16.4300 211° Southwest 499 574 33,000  Level FlightAware ADS-B
Sat 08:32:02 PM 33.0840 -16.4920 211° Southwest 499 574 33,000  Level FlightAware ADS-B
Sat 08:32:37 PM 33.0130 -16.5410 210° Southwest 500 575 33,000  Level FlightAware ADS-B
Sat 08:33:17 PM 32.9340 -16.5970 211° Southwest 502 578 33,000  Level FlightAware ADS-B
Sat 08:34:02 PM 32.8440 -16.6590 210° Southwest 503 579 33,000  Level FlightAware ADS-B
Sat 08:34:37 PM 32.7720 -16.7100 211° Southwest 505 581 33,000  Level FlightAware ADS-B
Sat 08:35:17 PM 32.6900 -16.7660 210° Southwest 505 581 33,000  Level FlightAware ADS-B
Sat 08:36:02 PM 32.6030 -16.8270 211° Southwest 505 581 33,000  Level FlightAware ADS-B
Sat 08:36:42 PM 32.5230 -16.8830 211° Southwest 505 581 33,000  Level FlightAware ADS-B
Sat 08:37:22 PM 32.4420 -16.9380 210° Southwest 507 583 33,000  Level FlightAware ADS-B
Sat 08:38:07 PM 32.3480 -17.0030 210° Southwest 507 583 33,000  Level FlightAware ADS-B
Sat 08:38:47 PM 32.2670 -17.0590 210° Southwest 508 585 33,000  Level FlightAware ADS-B
Sat 08:39:32 PM 32.1760 -17.1210 210° Southwest 509 586 33,000  Level FlightAware ADS-B
Sat 08:40:12 PM 32.0950 -17.1770 210° Southwest 509 586 33,000  Level FlightAware ADS-B
Sat 08:40:52 PM 32.0140 -17.2320 210° Southwest 510 587 33,000  Level FlightAware ADS-B
Sat 08:41:27 PM 31.9440 -17.2800 210° Southwest 509 586 33,000  Level FlightAware ADS-B
Sat 08:42:12 PM 31.8640 -17.3340 210° Southwest 509 586 33,000  Level FlightAware ADS-B
Sat 08:43:02 PM 31.7770 -17.3930 210° Southwest 509 586 33,000  Level FlightAware ADS-B
Sat 08:43:42 PM 31.7080 -17.4400 210° Southwest 509 586 33,000  Level FlightAware ADS-B
Sat 08:44:22 PM 31.6390 -17.4870 210° Southwest 509 586 33,000  Level FlightAware ADS-B
Sat 08:45:02 PM 31.5690 -17.5340 210° Southwest 509 586 33,000  Level FlightAware ADS-B
Sat 08:45:42 PM 31.5000 -17.5810 210° Southwest 509 586 33,000  Level FlightAware ADS-B
Sat 08:46:32 PM 31.4130 -17.6400 210° Southwest 509 586 33,000  Level FlightAware ADS-B
Sat 08:47:12 PM 31.3440 -17.6870 210° Southwest 509 586 33,000  Level FlightAware ADS-B
Sat 08:47:47 PM 31.1960 -17.8320 220° Southwest 504 580 33,000  Level FlightAware ADS-B
Sat 08:48:37 PM 31.1040 -17.9020 213° Southwest 504 580 33,000  Level FlightAware ADS-B
Sat 08:49:12 PM 31.0320 -17.9570 213° Southwest 508 585 33,000  Level FlightAware ADS-B
Sat 08:49:57 PM 30.9540 -18.0160 213° Southwest 508 585 33,000  Level FlightAware ADS-B
Sat 08:50:37 PM 30.8640 -18.0840 213° Southwest 507 583 33,000  Level FlightAware ADS-B
Sat 08:51:32 PM 30.7590 -18.1640 213° Southwest 506 582 33,000  Level FlightAware ADS-B
Sat 08:52:22 PM 30.6560 -18.2420 213° Southwest 507 583 33,000  Level FlightAware ADS-B
Sat 08:53:17 PM 30.5500 -18.3220 213° Southwest 508 585 33,000  Level FlightAware ADS-B
Sat 08:53:57 PM 30.4740 -18.3790 213° Southwest 510 587 33,000  Level FlightAware ADS-B
Sat 08:54:37 PM 30.3880 -18.4430 213° Southwest 511 588 33,000  Level FlightAware ADS-B
Sat 08:55:22 PM 30.2970 -18.5110 213° Southwest 512 589 33,000  Level FlightAware ADS-B
Sat 08:56:02 PM 30.2210 -18.5680 213° Southwest 512 589 33,000  Level FlightAware ADS-B
Sat 08:56:47 PM 30.1300 -18.6360 213° Southwest 512 589 33,000  Level FlightAware ADS-B
Sat 08:57:22 PM 30.0620 -18.6860 212° Southwest 513 590 33,000 71 Level FlightAware ADS-B
Sat 08:58:12 PM 29.9620 -18.7610 213° Southwest 515 593 33,100 667 Climbing FlightAware ADS-B
Sat 08:58:52 PM 29.8770 -18.8230 212° Southwest 512 589 34,000 675 Climbing FlightAware ADS-B
Sat 08:59:32 PM 29.8060 -18.8750 212° Southwest 511 588 34,000  Level FlightAware ADS-B
Sat 09:00:27 PM 29.6950 -18.9570 213° Southwest 510 587 34,000  Level FlightAware ADS-B
Sat 09:01:07 PM 29.6270 -19.0060 212° Southwest 510 587 34,000  Level FlightAware ADS-B
Sat 09:01:57 PM 29.5420 -19.0670 212° Southwest 510 587 34,000  Level FlightAware ADS-B
Sat 09:02:37 PM 29.4740 -19.1160 212° Southwest 510 587 34,000  Level FlightAware ADS-B
Sat 09:03:17 PM 29.4060 -19.1650 212° Southwest 510 587 34,000  Level FlightAware ADS-B
Sat 09:03:57 PM 29.3380 -19.2140 212° Southwest 510 587 34,000  Level FlightAware ADS-B
Sat 09:04:37 PM 29.2700 -19.2620 212° Southwest 510 587 34,000  Level FlightAware ADS-B
Sat 09:05:27 PM 29.1850 -19.3230 212° Southwest 510 587 34,000  Level FlightAware ADS-B
Sat 09:06:07 PM 29.1170 -19.3720 212° Southwest 510 587 34,000  Level FlightAware ADS-B
Sat 09:06:47 PM 29.0490 -19.4210 212° Southwest 510 587 34,000  Level FlightAware ADS-B
Sat 09:07:27 PM 28.9810 -19.4690 212° Southwest 510 587 34,000  Level FlightAware ADS-B
Sat 09:08:07 PM 28.9130 -19.5180 212° Southwest 510 587 34,000  Level FlightAware ADS-B
Sat 09:08:57 PM 28.8270 -19.5780 211° Southwest 510 587 34,000  Level FlightAware ADS-B
Sat 09:09:37 PM 28.7590 -19.6270 212° Southwest 510 587 34,000 12 Level FlightAware ADS-B
Sat 09:12:00 PM 28.4793 -19.7844 206° Southwest  Level Estimated
Sat 09:13:00 PM 28.3619 -19.8502 206° Southwest  Level Estimated
Sat 09:14:00 PM 28.2444 -19.9159 206° Southwest  Level Estimated
Sat 09:15:00 PM 28.1270 -19.9814 206° Southwest  Level Estimated
Sat 09:16:00 PM 28.0095 -20.0468 206° Southwest  Level Estimated
Sat 09:17:00 PM 27.8920 -20.1120 206° Southwest  Level Estimated
Sat 09:18:00 PM 27.7744 -20.1771 206° Southwest  Level Estimated
Sat 09:19:00 PM 27.6568 -20.2420 206° Southwest  Level Estimated
Sat 09:20:00 PM 27.5392 -20.3068 206° Southwest  Level Estimated
Sat 09:21:00 PM 27.4215 -20.3715 206° Southwest  Level Estimated
Sat 09:22:00 PM 27.3038 -20.4360 206° Southwest  Level Estimated
Sat 09:23:00 PM 27.1861 -20.5004 206° Southwest  Level Estimated
Sat 09:24:00 PM 27.0683 -20.5647 206° Southwest  Level Estimated
Sat 09:25:00 PM 26.9506 -20.6288 206° Southwest  Level Estimated
Sat 09:26:00 PM 26.8328 -20.6928 206° Southwest  Level Estimated
Sat 09:27:00 PM 26.7149 -20.7567 206° Southwest  Level Estimated
Sat 09:28:00 PM 26.5971 -20.8204 206° Southwest  Level Estimated
Sat 09:29:00 PM 26.4792 -20.8840 206° Southwest  Level Estimated
Sat 09:30:00 PM 26.3613 -20.9474 206° Southwest  Level Estimated
Sat 09:31:00 PM 26.2433 -21.0108 206° Southwest  Level Estimated
Sat 09:32:00 PM 26.1254 -21.0740 206° Southwest  Level Estimated
Sat 09:33:00 PM 26.0074 -21.1370 206° Southwest  Level Estimated
Sat 09:34:00 PM 25.8893 -21.2000 206° Southwest  Level Estimated
Sat 09:35:00 PM 25.7713 -21.2628 206° Southwest  Level Estimated
Sat 09:36:00 PM 25.6532 -21.3255 206° Southwest  Level Estimated
Sat 09:37:00 PM 25.5351 -21.3881 206° Southwest  Level Estimated
Sat 09:38:00 PM 25.4170 -21.4505 206° Southwest  Level Estimated
Sat 09:39:00 PM 25.2988 -21.5129 205° Southwest  Level Estimated
Sat 09:40:00 PM 25.1806 -21.5751 205° Southwest  Level Estimated
Sat 09:41:00 PM 25.0624 -21.6372 205° Southwest  Level Estimated
Sat 09:42:00 PM 24.9442 -21.6991 205° Southwest  Level Estimated
Sat 09:43:00 PM 24.8259 -21.7610 205° Southwest  Level Estimated
Sat 09:44:00 PM 24.7076 -21.8227 205° Southwest  Level Estimated
Sat 09:45:00 PM 24.5893 -21.8843 205° Southwest  Level Estimated
Sat 09:46:00 PM 24.4710 -21.9458 205° Southwest  Level Estimated
Sat 09:47:00 PM 24.3526 -22.0072 205° Southwest  Level Estimated
Sat 09:48:00 PM 24.2342 -22.0685 205° Southwest  Level Estimated
Sat 09:49:00 PM 24.1158 -22.1296 205° Southwest  Level Estimated
Sat 09:50:00 PM 23.9974 -22.1907 205° Southwest  Level Estimated
Sat 09:51:00 PM 23.8789 -22.2516 205° Southwest  Level Estimated
Sat 09:52:00 PM 23.7604 -22.3124 205° Southwest  Level Estimated
Sat 09:53:00 PM 23.6419 -22.3731 205° Southwest  Level Estimated
Sat 09:54:00 PM 23.5234 -22.4337 205° Southwest  Level Estimated
Sat 09:55:00 PM 23.4048 -22.4942 205° Southwest  Level Estimated
Sat 09:56:00 PM 23.2862 -22.5546 205° Southwest  Level Estimated
Sat 09:57:00 PM 23.1676 -22.6149 205° Southwest  Level Estimated
Sat 09:58:00 PM 23.0490 -22.6750 205° Southwest  Level Estimated
Sat 09:59:00 PM 22.9303 -22.7351 205° Southwest  Level Estimated
Sat 10:00:00 PM 22.8117 -22.7950 205° Southwest  Level Estimated
Sat 10:01:00 PM 22.6930 -22.8549 205° Southwest  Level Estimated
Sat 10:02:00 PM 22.5743 -22.9146 205° Southwest  Level Estimated
Sat 10:03:00 PM 22.4555 -22.9743 205° Southwest  Level Estimated
Sat 10:04:00 PM 22.3368 -23.0338 205° Southwest  Level Estimated
Sat 10:05:00 PM 22.2180 -23.0933 205° Southwest  Level Estimated
Sat 10:06:00 PM 22.0992 -23.1526 205° Southwest  Level Estimated
Sat 10:07:00 PM 21.9804 -23.2118 205° Southwest  Level Estimated
Sat 10:08:00 PM 21.8615 -23.2710 205° Southwest  Level Estimated
Sat 10:09:00 PM 21.7426 -23.3300 205° Southwest  Level Estimated
Sat 10:10:00 PM 21.6238 -23.3890 205° Southwest  Level Estimated
Sat 10:11:00 PM 21.5049 -23.4478 205° Southwest  Level Estimated
Sat 10:12:00 PM 21.3859 -23.5066 205° Southwest  Level Estimated
Sat 10:13:00 PM 21.2670 -23.5652 205° Southwest  Level Estimated
Sat 10:14:00 PM 21.1480 -23.6238 205° Southwest  Level Estimated
Sat 10:15:00 PM 21.0290 -23.6823 205° Southwest  Level Estimated
Sat 10:16:00 PM 20.9100 -23.7406 205° Southwest  Level Estimated
Sat 10:17:00 PM 20.7910 -23.7989 205° Southwest  Level Estimated
Sat 10:18:00 PM 20.6719 -23.8571 205° Southwest  Level Estimated
Sat 10:19:00 PM 20.5529 -23.9152 205° Southwest  Level Estimated
Sat 10:20:00 PM 20.4338 -23.9732 205° Southwest  Level Estimated
Sat 10:21:00 PM 20.3146 -24.0311 205° Southwest  Level Estimated
Sat 10:22:00 PM 20.1955 -24.0890 204° Southwest  Level Estimated
Sat 10:23:00 PM 20.0764 -24.1467 204° Southwest  Level Estimated
Sat 10:24:00 PM 19.9572 -24.2043 204° Southwest  Level Estimated
Sat 10:25:00 PM 19.8380 -24.2619 204° Southwest  Level Estimated
Sat 10:26:00 PM 19.7188 -24.3194 204° Southwest  Level Estimated
Sat 10:27:00 PM 19.5996 -24.3768 204° Southwest  Level Estimated
Sat 10:28:00 PM 19.4804 -24.4341 204° Southwest  Level Estimated
Sat 10:29:00 PM 19.3611 -24.4913 204° Southwest  Level Estimated
Sat 10:30:00 PM 19.2419 -24.5485 204° Southwest  Level Estimated
Sat 10:31:00 PM 19.1226 -24.6055 204° Southwest  Level Estimated
Sat 10:32:00 PM 19.0033 -24.6625 204° Southwest  Level Estimated
Sat 10:33:00 PM 18.8839 -24.7194 204° Southwest  Level Estimated
Sat 10:34:00 PM 18.7646 -24.7762 204° Southwest  Level Estimated
Sat 10:35:00 PM 18.6452 -24.8329 204° Southwest  Level Estimated
Sat 10:36:00 PM 18.5259 -24.8896 204° Southwest  Level Estimated
Sat 10:37:00 PM 18.4065 -24.9461 204° Southwest  Level Estimated
Sat 10:38:00 PM 18.2871 -25.0026 204° Southwest  Level Estimated
Sat 10:39:00 PM 18.1676 -25.0591 204° Southwest  Level Estimated
Sat 10:40:00 PM 18.0482 -25.1154 204° Southwest  Level Estimated
Sat 10:41:00 PM 17.9287 -25.1717 204° Southwest  Level Estimated
Sat 10:42:00 PM 17.8092 -25.2279 204° Southwest  Level Estimated
Sat 10:43:00 PM 17.6898 -25.2840 204° Southwest  Level Estimated
Sat 10:44:00 PM 17.5702 -25.3400 204° Southwest  Level Estimated
Sat 10:45:00 PM 17.4507 -25.3960 204° Southwest  Level Estimated
Sat 10:46:00 PM 17.3312 -25.4519 204° Southwest  Level Estimated
Sat 10:47:00 PM 17.2116 -25.5077 204° Southwest  Level Estimated
Sat 10:48:00 PM 17.0921 -25.5634 204° Southwest  Level Estimated
Sat 10:49:00 PM 16.9725 -25.6191 204° Southwest  Level Estimated
Sat 10:50:00 PM 16.8529 -25.6747 204° Southwest  Level Estimated
Sat 10:51:00 PM 16.7332 -25.7302 204° Southwest  Level Estimated
Sat 10:52:00 PM 16.6136 -25.7857 204° Southwest  Level Estimated
Sat 10:53:00 PM 16.4940 -25.8411 204° Southwest  Level Estimated
Sat 10:54:00 PM 16.3743 -25.8964 204° Southwest  Level Estimated
Sat 10:55:00 PM 16.2547 -25.9517 204° Southwest  Level Estimated
Sat 10:56:00 PM 16.1350 -26.0069 204° Southwest  Level Estimated
Sat 10:57:00 PM 16.0153 -26.0620 204° Southwest  Level Estimated
Sat 10:58:00 PM 15.8955 -26.1170 204° Southwest  Level Estimated
Sat 10:59:00 PM 15.7758 -26.1720 204° Southwest  Level Estimated
Sat 11:00:00 PM 15.6561 -26.2270 204° Southwest  Level Estimated
Sat 11:01:00 PM 15.5363 -26.2818 204° Southwest  Level Estimated
Sat 11:02:00 PM 15.4165 -26.3366 204° Southwest  Level Estimated
Sat 11:03:00 PM 15.2968 -26.3914 204° Southwest  Level Estimated
Sat 11:04:00 PM 15.1770 -26.4460 204° Southwest  Level Estimated
Sat 11:05:00 PM 15.0571 -26.5006 204° Southwest  Level Estimated
Sat 11:06:00 PM 14.9373 -26.5552 204° Southwest  Level Estimated
Sat 11:07:00 PM 14.8175 -26.6097 204° Southwest  Level Estimated
Sat 11:08:00 PM 14.6976 -26.6641 204° Southwest  Level Estimated
Sat 11:09:00 PM 14.5778 -26.7185 204° Southwest  Level Estimated
Sat 11:10:00 PM 14.4579 -26.7728 204° Southwest  Level Estimated
Sat 11:11:00 PM 14.3380 -26.8270 204° Southwest  Level Estimated
Sat 11:12:00 PM 14.2181 -26.8812 204° Southwest  Level Estimated
Sat 11:13:00 PM 14.0982 -26.9354 204° Southwest  Level Estimated
Sat 11:14:00 PM 13.9783 -26.9895 204° Southwest  Level Estimated
Sat 11:15:00 PM 13.8583 -27.0435 204° Southwest  Level Estimated
Sat 11:16:00 PM 13.7384 -27.0974 204° Southwest  Level Estimated
Sat 11:17:00 PM 13.6184 -27.1514 204° Southwest  Level Estimated
Sat 11:18:00 PM 13.4985 -27.2052 204° Southwest  Level Estimated
Sat 11:19:00 PM 13.3785 -27.2590 204° Southwest  Level Estimated
Sat 11:20:00 PM 13.2585 -27.3128 204° Southwest  Level Estimated
Sat 11:21:00 PM 13.1385 -27.3665 204° Southwest  Level Estimated
Sat 11:22:00 PM 13.0185 -27.4201 204° Southwest  Level Estimated
Sat 11:23:00 PM 12.8984 -27.4737 204° Southwest  Level Estimated
Sat 11:24:00 PM 12.7784 -27.5272 204° Southwest  Level Estimated
Sat 11:25:00 PM 12.6583 -27.5807 203° Southwest  Level Estimated
Sat 11:26:00 PM 12.5383 -27.6342 203° Southwest  Level Estimated
Sat 11:27:00 PM 12.4182 -27.6876 203° Southwest  Level Estimated
Sat 11:28:00 PM 12.2981 -27.7409 203° Southwest  Level Estimated
Sat 11:29:00 PM 12.1781 -27.7942 203° Southwest  Level Estimated
Sat 11:30:00 PM 12.0580 -27.8474 203° Southwest  Level Estimated
Sat 11:31:00 PM 11.9378 -27.9006 203° Southwest  Level Estimated
Sat 11:32:00 PM 11.8177 -27.9538 203° Southwest  Level Estimated
Sat 11:33:00 PM 11.6976 -28.0069 203° Southwest  Level Estimated
Sat 11:34:00 PM 11.5774 -28.0599 203° Southwest  Level Estimated
Sat 11:35:00 PM 11.4573 -28.1129 203° Southwest  Level Estimated
Sat 11:36:00 PM 11.3371 -28.1659 203° Southwest  Level Estimated
Sat 11:37:00 PM 11.2170 -28.2188 203° Southwest  Level Estimated
Sat 11:38:00 PM 11.0968 -28.2717 203° Southwest  Level Estimated
Sat 11:39:00 PM 10.9766 -28.3246 203° Southwest  Level Estimated
Sat 11:40:00 PM 10.8564 -28.3773 203° Southwest  Level Estimated
Sat 11:41:00 PM 10.7362 -28.4301 203° Southwest  Level Estimated
Sat 11:42:00 PM 10.6160 -28.4828 203° Southwest  Level Estimated
Sat 11:43:00 PM 10.4958 -28.5355 203° Southwest  Level Estimated
Sat 11:44:00 PM 10.3755 -28.5881 203° Southwest  Level Estimated
Sat 11:45:00 PM 10.2553 -28.6407 203° Southwest  Level Estimated
Sat 11:46:00 PM 10.1350 -28.6932 203° Southwest  Level Estimated
Sat 11:47:00 PM 10.0148 -28.7457 203° Southwest  Level Estimated
Sat 11:48:00 PM 9.8945 -28.7982 203° Southwest  Level Estimated
Sat 11:49:00 PM 9.7742 -28.8506 203° Southwest  Level Estimated
Sat 11:50:00 PM 9.6540 -28.9030 203° Southwest  Level Estimated
Sat 11:51:00 PM 9.5337 -28.9554 203° Southwest  Level Estimated
Sat 11:52:00 PM 9.4134 -29.0077 203° Southwest  Level Estimated
Sat 11:53:00 PM 9.2931 -29.0599 203° Southwest  Level Estimated
Sat 11:54:00 PM 9.1728 -29.1122 203° Southwest  Level Estimated
Sat 11:55:00 PM 9.0524 -29.1644 203° Southwest  Level Estimated
Sat 11:56:00 PM 8.9321 -29.2166 203° Southwest  Level Estimated
Sat 11:57:00 PM 8.8118 -29.2687 203° Southwest  Level Estimated
Sat 11:58:00 PM 8.6914 -29.3208 203° Southwest  Level Estimated
Sat 11:59:00 PM 8.5711 -29.3729 203° Southwest  Level Estimated
Sun 12:00:00 AM 8.4507 -29.4249 203° Southwest  Level Estimated
Sun 12:01:00 AM 8.3303 -29.4769 203° Southwest  Level Estimated
Sun 12:02:00 AM 8.2100 -29.5289 203° Southwest  Level Estimated
Sun 12:03:00 AM 8.0896 -29.5808 203° Southwest  Level Estimated
Sun 12:04:00 AM 7.9692 -29.6327 203° Southwest  Level Estimated
Sun 12:05:00 AM 7.8488 -29.6846 203° Southwest  Level Estimated
Sun 12:06:00 AM 7.7284 -29.7365 203° Southwest  Level Estimated
Sun 12:07:00 AM 7.6080 -29.7883 203° Southwest  Level Estimated
Sun 12:08:00 AM 7.4876 -29.8401 203° Southwest  Level Estimated
Sun 12:09:00 AM 7.3672 -29.8918 203° Southwest  Level Estimated
Sun 12:10:00 AM 7.2468 -29.9436 203° Southwest  Level Estimated
Sun 12:11:00 AM 7.1264 -29.9953 203° Southwest  Level Estimated
Sun 12:12:00 AM 7.0059 -30.0470 203° Southwest  Level Estimated
Sun 12:13:00 AM 6.8855 -30.0986 203° Southwest  Level Estimated
Sun 12:14:00 AM 6.7650 -30.1503 203° Southwest  Level Estimated
Sun 12:15:00 AM 6.6446 -30.2019 203° Southwest  Level Estimated
Sun 12:16:00 AM 6.5241 -30.2534 203° Southwest  Level Estimated
Sun 12:17:00 AM 6.4037 -30.3050 203° Southwest  Level Estimated
Sun 12:18:00 AM 6.2832 -30.3565 203° Southwest  Level Estimated
Sun 12:19:00 AM 6.1628 -30.4080 203° Southwest  Level Estimated
Sun 12:20:00 AM 6.0423 -30.4595 203° Southwest  Level Estimated
Sun 12:21:00 AM 5.9218 -30.5110 203° Southwest  Level Estimated
Sun 12:22:00 AM 5.8013 -30.5624 203° Southwest  Level Estimated
Sun 12:23:00 AM 5.6808 -30.6138 203° Southwest  Level Estimated
Sun 12:24:00 AM 5.5603 -30.6652 203° Southwest  Level Estimated
Sun 12:25:00 AM 5.4398 -30.7166 203° Southwest  Level Estimated
Sun 12:26:00 AM 5.3193 -30.7679 203° Southwest  Level Estimated
Sun 12:27:00 AM 5.1988 -30.8192 203° Southwest  Level Estimated
Sun 12:28:00 AM 5.0783 -30.8706 203° Southwest  Level Estimated
Sun 12:29:00 AM 4.9578 -30.9218 203° Southwest  Level Estimated
Sun 12:30:00 AM 4.8373 -30.9731 203° Southwest  Level Estimated
Sun 12:31:00 AM 4.7168 -31.0244 203° Southwest  Level Estimated
Sun 12:32:00 AM 4.5963 -31.0756 203° Southwest  Level Estimated
Sun 12:33:00 AM 4.4757 -31.1268 203° Southwest  Level Estimated
Sun 12:34:00 AM 4.3552 -31.1780 203° Southwest  Level Estimated
Sun 12:35:00 AM 4.2347 -31.2292 203° Southwest  Level Estimated
Sun 12:36:00 AM 4.1141 -31.2804 203° Southwest  Level Estimated
Sun 12:37:00 AM 3.9936 -31.3315 203° Southwest  Level Estimated
Sun 12:38:00 AM 3.8730 -31.3827 203° Southwest  Level Estimated
Sun 12:39:00 AM 3.7525 -31.4338 203° Southwest  Level Estimated
Sun 12:40:00 AM 3.6319 -31.4849 203° Southwest  Level Estimated
Sun 12:41:00 AM 3.5114 -31.5360 203° Southwest  Level Estimated
Sun 12:42:00 AM 3.3908 -31.5871 203° Southwest  Level Estimated
Sun 12:43:00 AM 3.2702 -31.6381 203° Southwest  Level Estimated
Sun 12:44:00 AM 3.1497 -31.6892 203° Southwest  Level Estimated
Sun 12:45:00 AM 3.0291 -31.7403 203° Southwest  Level Estimated
Sun 12:46:00 AM 2.9085 -31.7913 203° Southwest  Level Estimated
Sun 12:47:00 AM 2.7880 -31.8423 203° Southwest  Level Estimated
Sun 12:48:00 AM 2.6674 -31.8933 203° Southwest  Level Estimated
Sun 12:49:00 AM 2.5468 -31.9443 203° Southwest  Level Estimated
Sun 12:50:00 AM 2.4262 -31.9953 203° Southwest  Level Estimated
Sun 12:51:00 AM 2.3057 -32.0463 203° Southwest  Level Estimated
Sun 12:52:00 AM 2.1851 -32.0973 203° Southwest  Level Estimated
Sun 12:53:00 AM 2.0645 -32.1483 203° Southwest  Level Estimated
Sun 12:54:00 AM 1.9439 -32.1992 203° Southwest  Level Estimated
Sun 12:55:00 AM 1.8233 -32.2502 203° Southwest  Level Estimated
Sun 12:56:00 AM 1.7027 -32.3011 203° Southwest  Level Estimated
Sun 12:57:00 AM 1.5822 -32.3521 203° Southwest  Level Estimated
Sun 12:58:00 AM 1.4616 -32.4030 203° Southwest  Level Estimated
Sun 12:59:00 AM 1.3410 -32.4539 203° Southwest  Level Estimated
Sun 01:00:00 AM 1.2204 -32.5048 203° Southwest  Level Estimated
Sun 01:01:00 AM 1.0998 -32.5558 203° Southwest  Level Estimated
Sun 01:02:00 AM 0.9792 -32.6067 203° Southwest  Level Estimated
Sun 01:03:00 AM 0.8586 -32.6576 203° Southwest  Level Estimated
Sun 01:04:00 AM 0.7380 -32.7085 203° Southwest  Level Estimated
Sun 01:05:00 AM 0.6174 -32.7594 203° Southwest  Level Estimated
Sun 01:06:00 AM 0.4968 -32.8103 203° Southwest  Level Estimated
Sun 01:07:00 AM 0.3762 -32.8612 203° Southwest  Level Estimated
Sun 01:08:00 AM 0.2556 -32.9121 203° Southwest  Level Estimated
Sun 01:09:00 AM 0.1350 -32.9630 203° Southwest  Level Estimated
Sun 01:10:00 AM 0.0144 -33.0139 203° Southwest  Level Estimated
Sun 01:11:00 AM -0.1062 -33.0648 203° Southwest  Level Estimated
Sun 01:12:00 AM -0.2268 -33.1157 203° Southwest  Level Estimated
Sun 01:13:00 AM -0.3474 -33.1666 203° Southwest  Level Estimated
Sun 01:14:00 AM -0.4680 -33.2175 203° Southwest  Level Estimated
Sun 01:15:00 AM -0.5886 -33.2684 203° Southwest  Level Estimated
Sun 01:16:00 AM -0.7092 -33.3193 203° Southwest  Level Estimated
Sun 01:16:22 AM -1.3080 -37.2400 203° Southwest 503 579 37,000  Level FlightAware ADS-B
Sun 01:17:00 AM -0.8298 -33.3702 203° Southwest  Level Estimated
Sun 01:17:07 AM -1.4020 -37.2900 208° Southwest 504 580 37,000  Level FlightAware ADS-B
Sun 01:17:47 AM -1.4850 -37.3330 207° Southwest 503 579 37,000  Level FlightAware ADS-B
Sun 01:18:32 AM -1.5800 -37.3840 208° Southwest 504 580 37,000  Level FlightAware ADS-B
Sun 01:19:12 AM -1.6620 -37.4270 208° Southwest 507 583 37,000  Level FlightAware ADS-B
Sun 01:19:52 AM -1.7450 -37.4710 208° Southwest 509 586 37,000  Level FlightAware ADS-B
Sun 01:20:32 AM -1.8300 -37.5160 208° Southwest 510 587 37,000  Level FlightAware ADS-B
Sun 01:21:17 AM -1.9150 -37.5610 208° Southwest 510 587 37,000  Level FlightAware ADS-B
Sun 01:21:57 AM -2.0030 -37.6080 208° Southwest 509 586 37,000  Level FlightAware ADS-B
Sun 01:22:42 AM -2.1020 -37.6600 208° Southwest 508 585 37,000  Level FlightAware ADS-B
Sun 01:23:22 AM -2.1840 -37.7040 208° Southwest 509 586 37,000  Level FlightAware ADS-B
Sun 01:24:07 AM -2.2800 -37.7510 206° Southwest 510 587 37,000  Level FlightAware ADS-B
Sun 01:24:47 AM -2.3670 -37.7820 200° South 513 590 37,000  Level FlightAware ADS-B
Sun 01:25:27 AM -2.4580 -37.8090 197° South 514 592 37,000  Level FlightAware ADS-B
Sun 01:26:12 AM -2.5630 -37.8400 196° South 514 592 37,000  Level FlightAware ADS-B
Sun 01:26:52 AM -2.6570 -37.8680 197° South 516 594 37,000  Level FlightAware ADS-B
Sun 01:27:32 AM -2.7470 -37.8960 197° South 515 593 37,000  Level FlightAware ADS-B
Sun 01:28:17 AM -2.8480 -37.9270 197° South 515 593 37,000  Level FlightAware ADS-B
Sun 01:28:57 AM -2.9400 -37.9550 197° South 514 592 37,000  Level FlightAware ADS-B
Sun 01:29:42 AM -3.0420 -37.9870 197° South 514 592 37,000  Level FlightAware ADS-B
Sun 01:30:22 AM -3.1350 -38.0160 197° South 514 592 37,000  Level FlightAware ADS-B
Sun 01:31:07 AM -3.2400 -38.0480 197° South 513 590 37,000  Level FlightAware ADS-B
Sun 01:31:47 AM -3.3290 -38.0750 197° South 513 590 37,000  Level FlightAware ADS-B
Sun 01:32:27 AM -3.4220 -38.1040 197° South 514 592 37,000  Level FlightAware ADS-B
Sun 01:33:12 AM -3.5220 -38.1340 197° South 514 592 37,000  Level FlightAware ADS-B
Sun 01:33:52 AM -3.6120 -38.1620 197° South 514 592 37,000  Level FlightAware ADS-B
Sun 01:34:37 AM -3.7180 -38.1950 197° South 514 592 37,000  Level FlightAware ADS-B
Sun 01:35:17 AM -3.8090 -38.2220 196° South 513 590 37,000 353 Level FlightAware ADS-B
Sun 01:36:02 AM -3.9100 -38.2530 197° South 514 592 37,500 706 Climbing FlightAware ADS-B
Sun 01:36:42 AM -4.0000 -38.2810 197° South 512 589 38,000 353 Climbing FlightAware ADS-B
Sun 01:37:27 AM -4.1050 -38.3130 197° South 510 587 38,000  Level FlightAware ADS-B
Sun 01:38:07 AM -4.1970 -38.3420 197° South 510 587 38,000  Level FlightAware ADS-B
Sun 01:38:47 AM -4.2860 -38.3690 197° South 509 586 38,000  Level FlightAware ADS-B
Sun 01:39:32 AM -4.3850 -38.4000 197° South 508 585 38,000  Level FlightAware ADS-B
Sun 01:40:12 AM -4.4770 -38.4280 197° South 509 586 38,000  Level FlightAware ADS-B
Sun 01:40:57 AM -4.5770 -38.4590 197° South 511 588 38,000  Level FlightAware ADS-B
Sun 01:41:37 AM -4.6710 -38.4880 197° South 511 588 38,000  Level FlightAware ADS-B
Sun 01:42:17 AM -4.7630 -38.5160 197° South 511 588 38,000  Level FlightAware ADS-B
Sun 01:43:02 AM -4.8600 -38.5460 197° South 510 587 38,000  Level FlightAware ADS-B
Sun 01:43:42 AM -4.9520 -38.5740 197° South 509 586 38,000  Level FlightAware ADS-B
Sun 01:44:22 AM -5.0420 -38.6020 197° South 508 585 38,000  Level FlightAware ADS-B
Sun 01:45:07 AM -5.1460 -38.6340 197° South 507 583 38,000  Level FlightAware ADS-B
Sun 01:45:47 AM -5.2370 -38.6620 197° South 507 583 38,000  Level FlightAware ADS-B
Sun 01:46:32 AM -5.3350 -38.6920 197° South 507 583 38,000  Level FlightAware ADS-B
Sun 01:47:12 AM -5.4270 -38.7210 197° South 507 583 38,000  Level FlightAware ADS-B
Sun 01:47:52 AM -5.5160 -38.7480 197° South 508 585 38,000  Level FlightAware ADS-B
Sun 01:48:37 AM -5.6200 -38.7810 198° South 507 583 38,000  Level FlightAware ADS-B
Sun 01:49:17 AM -5.7090 -38.8080 197° South 506 582 38,000  Level FlightAware ADS-B
Sun 01:50:02 AM -5.8030 -38.8370 197° South 506 582 38,000  Level FlightAware ADS-B
Sun 01:50:37 AM -5.8770 -38.8600 197° South 506 582 38,000  Level FlightAware ADS-B
Sun 01:51:17 AM -5.9530 -38.8830 197° South 506 582 38,000  Level FlightAware ADS-B
Sun 01:52:07 AM -6.0480 -38.9120 197° South 506 582 38,000  Level FlightAware ADS-B
Sun 01:52:47 AM -6.1250 -38.9360 197° South 506 582 38,000  Level FlightAware ADS-B
Sun 01:53:27 AM -6.2010 -38.9590 197° South 506 582 38,000  Level FlightAware ADS-B
Sun 01:54:07 AM -6.2770 -38.9830 197° South 506 582 38,000  Level FlightAware ADS-B
Sun 01:54:47 AM -6.3530 -39.0060 197° South 506 582 38,000  Level FlightAware ADS-B
Sun 01:55:37 AM -6.4480 -39.0350 197° South 506 582 38,000  Level FlightAware ADS-B
Sun 01:56:17 AM -6.5240 -39.0590 197° South 506 582 38,000  Level FlightAware ADS-B
Sun 01:56:57 AM -6.6000 -39.0820 197° South 506 582 38,000  Level FlightAware ADS-B
Sun 01:57:37 AM -6.6760 -39.1060 197° South 506 582 38,000  Level FlightAware ADS-B
Sun 01:58:17 AM -6.7520 -39.1290 197° South 506 582 38,000  Level FlightAware ADS-B
Sun 01:59:07 AM -6.8480 -39.1580 197° South 506 582 38,000  Level FlightAware ADS-B
Sun 01:59:47 AM -6.9240 -39.1820 197° South 506 582 38,000 -25 Level FlightAware ADS-B
Sun 02:02:00 AM -7.2063 -39.2498 193° South  Level Estimated
Sun 02:03:00 AM -7.3336 -39.2804 193° South  Level Estimated
Sun 02:04:00 AM -7.4609 -39.3110 193° South  Level Estimated
Sun 02:05:00 AM -7.5882 -39.3417 193° South  Level Estimated
Sun 02:06:00 AM -7.7155 -39.3724 193° South  Level Estimated
Sun 02:07:00 AM -7.8429 -39.4030 193° South  Level Estimated
Sun 02:08:00 AM -7.9702 -39.4337 193° South  Level Estimated
Sun 02:09:00 AM -8.0975 -39.4645 193° South  Level Estimated
Sun 02:10:00 AM -8.2248 -39.4952 193° South  Level Estimated
Sun 02:11:00 AM -8.3521 -39.5260 193° South  Level Estimated
Sun 02:12:00 AM -8.4794 -39.5567 193° South  Level Estimated
Sun 02:13:00 AM -8.6067 -39.5875 193° South  Level Estimated
Sun 02:14:00 AM -8.7340 -39.6184 193° South  Level Estimated
Sun 02:15:00 AM -8.8613 -39.6492 193° South  Level Estimated
Sun 02:16:00 AM -8.9886 -39.6801 193° South  Level Estimated
Sun 02:17:00 AM -9.1159 -39.7110 193° South  Level Estimated
Sun 02:18:00 AM -9.2432 -39.7419 193° South  Level Estimated
Sun 02:19:00 AM -9.3705 -39.7728 193° South  Level Estimated
Sun 02:20:00 AM -9.4978 -39.8037 193° South  Level Estimated
Sun 02:21:00 AM -9.6251 -39.8347 193° South  Level Estimated
Sun 02:22:00 AM -9.7523 -39.8657 193° South  Level Estimated
Sun 02:23:00 AM -9.8796 -39.8968 194° South  Level Estimated
Sun 02:24:00 AM -10.0069 -39.9278 194° South  Level Estimated
Sun 02:25:00 AM -10.1342 -39.9589 194° South  Level Estimated
Sun 02:26:00 AM -10.2614 -39.9900 194° South  Level Estimated
Sun 02:27:00 AM -10.3887 -40.0211 194° South  Level Estimated
Sun 02:28:00 AM -10.5160 -40.0522 194° South  Level Estimated
Sun 02:29:00 AM -10.6432 -40.0834 194° South  Level Estimated
Sun 02:30:00 AM -10.7705 -40.1146 194° South  Level Estimated
Sun 02:31:00 AM -10.8977 -40.1458 194° South  Level Estimated
Sun 02:32:00 AM -11.0250 -40.1771 194° South  Level Estimated
Sun 02:33:00 AM -11.1523 -40.2084 194° South  Level Estimated
Sun 02:34:00 AM -11.2795 -40.2397 194° South  Level Estimated
Sun 02:35:00 AM -11.4067 -40.2710 194° South  Level Estimated
Sun 02:36:00 AM -11.5340 -40.3024 194° South  Level Estimated
Sun 02:37:00 AM -11.6612 -40.3338 194° South  Level Estimated
Sun 02:38:00 AM -11.7884 -40.3652 194° South  Level Estimated
Sun 02:39:00 AM -11.9157 -40.3966 194° South  Level Estimated
Sun 02:40:00 AM -12.0429 -40.4281 194° South  Level Estimated
Sun 02:41:00 AM -12.1701 -40.4596 194° South  Level Estimated
Sun 02:42:00 AM -12.2973 -40.4912 194° South  Level Estimated
Sun 02:43:00 AM -12.4245 -40.5227 194° South  Level Estimated
Sun 02:44:00 AM -12.5517 -40.5543 194° South  Level Estimated
Sun 02:45:00 AM -12.6790 -40.5860 194° South  Level Estimated
Sun 02:46:00 AM -12.8062 -40.6176 194° South  Level Estimated
Sun 02:47:00 AM -12.9333 -40.6493 194° South  Level Estimated
Sun 02:48:00 AM -13.0605 -40.6810 194° South  Level Estimated
Sun 02:49:00 AM -13.1877 -40.7128 194° South  Level Estimated
Sun 02:50:00 AM -13.3149 -40.7446 194° South  Level Estimated
Sun 02:51:00 AM -13.4421 -40.7764 194° South  Level Estimated
Sun 02:52:00 AM -13.5693 -40.8083 194° South  Level Estimated
Sun 02:53:00 AM -13.6965 -40.8402 194° South  Level Estimated
Sun 02:54:00 AM -13.8236 -40.8721 194° South  Level Estimated
Sun 02:55:00 AM -13.9508 -40.9041 194° South  Level Estimated
Sun 02:56:00 AM -14.0780 -40.9361 194° South  Level Estimated
Sun 02:57:00 AM -14.2051 -40.9681 194° South  Level Estimated
Sun 02:58:00 AM -14.3323 -41.0002 194° South  Level Estimated
Sun 02:59:00 AM -14.4594 -41.0323 194° South  Level Estimated
Sun 03:00:00 AM -14.5866 -41.0644 194° South  Level Estimated
Sun 03:01:00 AM -14.7137 -41.0966 194° South  Level Estimated
Sun 03:02:00 AM -14.8409 -41.1288 194° South  Level Estimated
Sun 03:03:00 AM -14.9680 -41.1611 194° South  Level Estimated
Sun 03:04:00 AM -15.0951 -41.1934 194° South  Level Estimated
Sun 03:05:00 AM -15.2222 -41.2257 194° South  Level Estimated
Sun 03:06:00 AM -15.3494 -41.2581 194° South  Level Estimated
Sun 03:07:00 AM -15.4765 -41.2905 194° South  Level Estimated
Sun 03:08:00 AM -15.6036 -41.3229 194° South  Level Estimated
Sun 03:09:00 AM -15.7307 -41.3554 194° South  Level Estimated
Sun 03:10:00 AM -15.8578 -41.3879 194° South  Level Estimated
Sun 03:11:00 AM -15.9849 -41.4205 194° South  Level Estimated
Sun 03:12:00 AM -16.1120 -41.4531 194° South  Level Estimated
Sun 03:13:00 AM -16.2390 -41.4858 194° South  Level Estimated
Sun 03:14:00 AM -16.3661 -41.5185 194° South  Level Estimated
Sun 03:15:00 AM -16.4932 -41.5512 194° South  Level Estimated
Sun 03:16:00 AM -16.6203 -41.5840 194° South  Level Estimated
Sun 03:17:00 AM -16.7473 -41.6168 194° South  Level Estimated
Sun 03:18:00 AM -16.8744 -41.6497 194° South  Level Estimated
Sun 03:19:00 AM -17.0014 -41.6826 194° South  Level Estimated
Sun 03:20:00 AM -17.1285 -41.7156 194° South  Level Estimated
Sun 03:21:00 AM -17.2555 -41.7486 194° South  Level Estimated
Sun 03:22:00 AM -17.3826 -41.7817 194° South  Level Estimated
Sun 03:23:00 AM -17.5096 -41.8148 194° South  Level Estimated
Sun 03:24:00 AM -17.6366 -41.8479 194° South  Level Estimated
Sun 03:25:00 AM -17.7637 -41.8811 194° South  Level Estimated
Sun 03:26:00 AM -17.8907 -41.9143 194° South  Level Estimated
Sun 03:27:00 AM -18.0177 -41.9476 194° South  Level Estimated
Sun 03:28:00 AM -18.1447 -41.9809 194° South  Level Estimated
Sun 03:29:00 AM -18.2717 -42.0143 194° South  Level Estimated
Sun 03:30:00 AM -18.3987 -42.0477 194° South  Level Estimated
Sun 03:31:00 AM -18.5257 -42.0812 194° South  Level Estimated
Sun 03:32:00 AM -18.6526 -42.1148 194° South  Level Estimated
Sun 03:33:00 AM -18.7796 -42.1483 194° South  Level Estimated
Sun 03:34:00 AM -18.9066 -42.1820 194° South  Level Estimated
Sun 03:35:00 AM -19.0336 -42.2156 194° South  Level Estimated
Sun 03:36:00 AM -19.1605 -42.2494 194° South  Level Estimated
Sun 03:37:00 AM -19.2875 -42.2832 194° South  Level Estimated
Sun 03:38:00 AM -19.4144 -42.3170 194° South  Level Estimated
Sun 03:39:00 AM -19.5413 -42.3509 194° South  Level Estimated
Sun 03:40:00 AM -19.6683 -42.3848 194° South  Level Estimated
Sun 03:41:00 AM -19.7952 -42.4188 194° South  Level Estimated
Sun 03:42:00 AM -19.9221 -42.4529 194° South  Level Estimated
Sun 03:43:00 AM -20.0490 -42.4870 194° South  Level Estimated
Sun 03:44:00 AM -20.1759 -42.5212 194° South  Level Estimated
Sun 03:45:00 AM -20.3028 -42.5554 194° South  Level Estimated
Sun 03:46:00 AM -20.4297 -42.5896 194° South  Level Estimated
Sun 03:46:32 AM -21.0010 -43.1170 194° South 478 550 35,300  Level FlightAware ADS-B
Sun 03:47:00 AM -20.5566 -42.6240 194° South  Level Estimated
Sun 03:47:07 AM -21.0680 -43.1590 210° Southwest 470 541 34,700  Level FlightAware ADS-B
Sun 03:48:07 AM -21.1780 -43.2260 210° Southwest 462 532 33,300 -1,657 Descending FlightAware ADS-B
Sun 03:48:52 AM -21.2540 -43.2730 210° Southwest 453 521 31,800 -2,259 Descending FlightAware ADS-B
Sun 03:49:32 AM -21.3290 -43.3190 210° Southwest 449 517 30,100 -2,550 Descending FlightAware ADS-B
Sun 03:50:12 AM -21.4050 -43.3670 210° Southwest 447 514 28,400 -2,118 Descending FlightAware ADS-B
Sun 03:50:57 AM -21.4720 -43.4080 210° Southwest 438 504 27,100 -1,553 Descending FlightAware ADS-B
Sun 03:51:37 AM -21.5500 -43.4560 210° Southwest 436 502 26,200 -675 Descending FlightAware ADS-B
Sun 03:52:17 AM -21.6090 -43.4930 210° Southwest 436 502 26,200  Level FlightAware ADS-B
Sun 03:52:57 AM -21.6690 -43.5300 210° Southwest 436 502 26,200  Level FlightAware ADS-B
Sun 03:53:37 AM -21.7280 -43.5670 210° Southwest 436 502 26,200  Level FlightAware ADS-B
Sun 03:54:27 AM -21.8020 -43.6130 210° Southwest 436 502 26,200  Level FlightAware ADS-B
Sun 03:55:07 AM -21.8620 -43.6500 210° Southwest 436 502 26,200 -7,425 Level FlightAware ADS-B
Sun 03:55:47 AM -21.9660 -43.7150 210° Southwest 395 455 16,300 -8,475 Descending FlightAware ADS-B
Sun 03:56:27 AM -22.0380 -43.7500 204° Southwest 400 460 14,900 -1,867 Descending FlightAware ADS-B
Sun 03:57:17 AM -22.1140 -43.7230 162° South 405 466 13,500 -1,733 Descending FlightAware ADS-B
Sun 03:57:57 AM -22.1900 -43.6730 149° Southeast 389 448 12,300 -1,067 Descending FlightAware ADS-B
Sun 03:58:47 AM -22.2580 -43.6260 147° Southeast 377 434 11,900 -867 Descending FlightAware ADS-B
Sun 03:59:27 AM -22.3070 -43.5950 150° Southeast 355 409 11,000 -635 Descending FlightAware ADS-B
Sun 04:00:12 AM -22.3650 -43.5550 147° Southeast 355 409 11,000 -825 Level FlightAware ADS-B
Sun 04:00:47 AM -22.4330 -43.5530 178° South 327 376 9,900 -1,292 Descending FlightAware ADS-B
Sun 04:01:17 AM -22.4780 -43.5680 197° South 307 353 9,600 -533 Descending FlightAware ADS-B
Sun 04:01:32 AM -22.4870 -43.5710 197° South 301 346 9,500 -120 Descending FlightAware ADS-B
Sun 04:02:07 AM -22.5280 -43.5850 198° South 301 346 9,500  Level FlightAware ADS-B
Sun 04:02:37 AM -22.5620 -43.5960 197° South 301 346 9,500 -1,500 Level FlightAware ADS-B
Sun 04:03:07 AM -22.6210 -43.6140 196° South 7,600 -2,143 Descending FlightAware ADS-B
Sun 04:03:47 AM -22.6610 -43.5850 146° Southeast 269 310 7,000 -1,114 Descending FlightAware ADS-B
Sun 04:04:17 AM -22.6810 -43.5520 123° Southeast 262 302 6,300 -1,320 Descending FlightAware ADS-B
Sun 04:04:37 AM -22.6900 -43.5350 120° Southeast 264 304 5,900 -1,418 Descending FlightAware ADS-B
Sun 04:05:12 AM -22.7130 -43.4910 120° Southeast 261 300 5,000 -1,560 Descending FlightAware ADS-B
Sun 04:05:27 AM -22.7190 -43.4680 106° East 255 293 4,600 -1,500 Descending FlightAware ADS-B
Sun 04:05:52 AM -22.7210 -43.4380 94° East 246 283 4,000 -1,500 Descending FlightAware ADS-B
Sun 04:06:47 AM -22.7350 -43.3800 105° East 209 241 2,600 -1,070 Descending FlightAware ADS-B
Sun 04:08:57 AM -22.7960 -43.2880 120° Southeast 160 184 700 -764 Descending FlightAware ADS-B
Sun 04:09:00 AM -22.8089 -43.2436 120° Southeast  Level Estimated
Sun 04:09:32 AM -22.8110 -43.2660 126° Southeast 154 177 500  Level FlightAware ADS-B
Sun 04:13:00 AM -22.8089 -43.2436 284° West  Level Estimated
Sun 04:14:00 AM -22.8089 -43.2436 137° Southeast  Level Estimated

Login

Don't have an account? Register now (free) for customized features, flight alerts, and more!